sensor_id;sensor_type;location;lat;lon;timestamp;pressure;altitude;pressure_sealevel;temperature;humidity
75460;BME280;64039;53.060;9.342;2023-08-31T00:01:11;100171.19;;;12.45;100.00
75460;BME280;64039;53.060;9.342;2023-08-31T00:03:36;100170.31;;;12.39;100.00
75460;BME280;64039;53.060;9.342;2023-08-31T00:06:02;100179.03;;;12.37;100.00
75460;BME280;64039;53.060;9.342;2023-08-31T00:08:29;100166.88;;;12.45;100.00
75460;BME280;64039;53.060;9.342;2023-08-31T00:10:59;100165.94;;;12.34;100.00
75460;BME280;64039;53.060;9.342;2023-08-31T00:13:25;100167.69;;;12.35;100.00
75460;BME280;64039;53.060;9.342;2023-08-31T00:15:55;100164.16;;;12.22;100.00
75460;BME280;64039;53.060;9.342;2023-08-31T00:18:22;100162.41;;;12.19;100.00
75460;BME280;64039;53.060;9.342;2023-08-31T00:20:48;100164.06;;;11.99;100.00
75460;BME280;64039;53.060;9.342;2023-08-31T00:23:13;100162.38;;;12.11;100.00
75460;BME280;64039;53.060;9.342;2023-08-31T00:25:39;100171.09;;;12.12;100.00
75460;BME280;64039;53.060;9.342;2023-08-31T00:28:04;100168.47;;;12.10;100.00
75460;BME280;64039;53.060;9.342;2023-08-31T00:30:33;100173.63;;;12.01;100.00
75460;BME280;64039;53.060;9.342;2023-08-31T00:32:58;100171.91;;;12.00;100.00
75460;BME280;64039;53.060;9.342;2023-08-31T00:35:27;100166.59;;;11.86;100.00
75460;BME280;64039;53.060;9.342;2023-08-31T00:37:53;100170.03;;;11.80;100.00
75460;BME280;64039;53.060;9.342;2023-08-31T00:40:24;100169.19;;;11.86;100.00
75460;BME280;64039;53.060;9.342;2023-08-31T00:42:49;100170.06;;;11.88;100.00
75460;BME280;64039;53.060;9.342;2023-08-31T00:45:15;100176.91;;;11.69;100.00
75460;BME280;64039;53.060;9.342;2023-08-31T00:47:41;100172.50;;;11.63;100.00
75460;BME280;64039;53.060;9.342;2023-08-31T00:50:07;100175.97;;;11.58;100.00
75460;BME280;64039;53.060;9.342;2023-08-31T00:52:33;100173.31;;;11.48;100.00
75460;BME280;64039;53.060;9.342;2023-08-31T00:55:00;100177.72;;;11.63;100.00
75460;BME280;64039;53.060;9.342;2023-08-31T00:57:28;100174.28;;;11.69;100.00
75460;BME280;64039;53.060;9.342;2023-08-31T00:59:53;100172.44;;;11.54;100.00
75460;BME280;64039;53.060;9.342;2023-08-31T01:02:30;100173.38;;;11.59;100.00
75460;BME280;64039;53.060;9.342;2023-08-31T01:05:35;100176.84;;;11.60;100.00
75460;BME280;64039;53.060;9.342;2023-08-31T01:08:44;100174.97;;;11.40;100.00
75460;BME280;64039;53.060;9.342;2023-08-31T01:10:58;100176.72;;;11.44;100.00
75460;BME280;64039;53.060;9.342;2023-08-31T01:13:30;100184.56;;;11.41;100.00
75460;BME280;64039;53.060;9.342;2023-08-31T01:16:00;100181.91;;;11.38;100.00
75460;BME280;64039;53.060;9.342;2023-08-31T01:18:28;100186.19;;;11.31;100.00
75460;BME280;64039;53.060;9.342;2023-08-31T01:23:54;100186.22;;;11.33;100.00
75460;BME280;64039;53.060;9.342;2023-08-31T01:26:21;100180.03;;;11.23;100.00
75460;BME280;64039;53.060;9.342;2023-08-31T01:28:47;100187.84;;;11.22;100.00
75460;BME280;64039;53.060;9.342;2023-08-31T01:31:13;100186.09;;;11.21;100.00
75460;BME280;64039;53.060;9.342;2023-08-31T01:33:41;100195.63;;;11.17;100.00
75460;BME280;64039;53.060;9.342;2023-08-31T01:36:33;100196.53;;;11.22;100.00
75460;BME280;64039;53.060;9.342;2023-08-31T01:39:11;100192.03;;;11.04;100.00
75460;BME280;64039;53.060;9.342;2023-08-31T01:41:40;100201.59;;;11.07;100.00
75460;BME280;64039;53.060;9.342;2023-08-31T01:44:10;100203.31;;;11.03;100.00
75460;BME280;64039;53.060;9.342;2023-08-31T01:46:39;100198.16;;;11.06;100.00
75460;BME280;64039;53.060;9.342;2023-08-31T01:49:05;100208.47;;;10.97;100.00
75460;BME280;64039;53.060;9.342;2023-08-31T01:51:31;100206.63;;;10.85;100.00
75460;BME280;64039;53.060;9.342;2023-08-31T01:53:56;100201.47;;;10.90;100.00
75460;BME280;64039;53.060;9.342;2023-08-31T01:56:23;100200.66;;;10.95;100.00
75460;BME280;64039;53.060;9.342;2023-08-31T01:58:49;100202.31;;;10.90;100.00
75460;BME280;64039;53.060;9.342;2023-08-31T02:01:14;100207.53;;;10.90;100.00
75460;BME280;64039;53.060;9.342;2023-08-31T02:03:40;100199.72;;;10.89;100.00
75460;BME280;64039;53.060;9.342;2023-08-31T02:06:05;100208.38;;;10.86;100.00
75460;BME280;64039;53.060;9.342;2023-08-31T02:08:32;100208.31;;;10.83;100.00
75460;BME280;64039;53.060;9.342;2023-08-31T02:10:57;100198.75;;;10.80;100.00
75460;BME280;64039;53.060;9.342;2023-08-31T02:13:23;100207.31;;;10.70;100.00
75460;BME280;64039;53.060;9.342;2023-08-31T02:15:51;100207.31;;;10.68;100.00
75460;BME280;64039;53.060;9.342;2023-08-31T02:18:17;100207.25;;;10.64;100.00
75460;BME280;64039;53.060;9.342;2023-08-31T02:20:43;100204.56;;;10.54;100.00
75460;BME280;64039;53.060;9.342;2023-08-31T02:23:08;100208.97;;;10.62;100.00
75460;BME280;64039;53.060;9.342;2023-08-31T02:25:35;100216.84;;;10.68;100.00
75460;BME280;64039;53.060;9.342;2023-08-31T02:28:00;100225.44;;;10.59;100.00
75460;BME280;64039;53.060;9.342;2023-08-31T02:30:26;100218.59;;;10.70;100.00
75460;BME280;64039;53.060;9.342;2023-08-31T02:32:51;100222.94;;;10.70;100.00
75460;BME280;64039;53.060;9.342;2023-08-31T02:35:17;100223.75;;;10.64;100.00
75460;BME280;64039;53.060;9.342;2023-08-31T02:37:43;100230.56;;;10.54;100.00
75460;BME280;64039;53.060;9.342;2023-08-31T02:40:09;100219.28;;;10.54;100.00
75460;BME280;64039;53.060;9.342;2023-08-31T02:42:34;100220.22;;;10.58;100.00
75460;BME280;64039;53.060;9.342;2023-08-31T02:45:00;100221.13;;;10.61;100.00
75460;BME280;64039;53.060;9.342;2023-08-31T02:47:26;100225.44;;;10.62;100.00
75460;BME280;64039;53.060;9.342;2023-08-31T02:49:51;100228.72;;;10.46;100.00
75460;BME280;64039;53.060;9.342;2023-08-31T02:52:17;100231.38;;;10.47;100.00
75460;BME280;64039;53.060;9.342;2023-08-31T02:54:42;100232.16;;;10.42;100.00
75460;BME280;64039;53.060;9.342;2023-08-31T02:57:08;100227.84;;;10.44;100.00
75460;BME280;64039;53.060;9.342;2023-08-31T02:59:34;100233.13;;;10.51;100.00
75460;BME280;64039;53.060;9.342;2023-08-31T03:02:03;100229.63;;;10.46;100.00
75460;BME280;64039;53.060;9.342;2023-08-31T03:04:29;100233.97;;;10.49;100.00
75460;BME280;64039;53.060;9.342;2023-08-31T03:06:54;100234.75;;;10.40;100.00
75460;BME280;64039;53.060;9.342;2023-08-31T03:09:20;100239.09;;;10.43;100.00
75460;BME280;64039;53.060;9.342;2023-08-31T03:11:46;100242.56;;;10.40;100.00
75460;BME280;64039;53.060;9.342;2023-08-31T03:14:12;100240.81;;;10.39;100.00
75460;BME280;64039;53.060;9.342;2023-08-31T03:16:37;100233.00;;;10.42;100.00
75460;BME280;64039;53.060;9.342;2023-08-31T03:19:02;100242.50;;;10.37;100.00
75460;BME280;64039;53.060;9.342;2023-08-31T03:21:28;100239.81;;;10.32;100.00
75460;BME280;64039;53.060;9.342;2023-08-31T03:23:53;100246.81;;;10.36;100.00
75460;BME280;64039;53.060;9.342;2023-08-31T03:26:19;100246.78;;;10.35;100.00
75460;BME280;64039;53.060;9.342;2023-08-31T03:28:44;100252.75;;;10.29;100.00
75460;BME280;64039;53.060;9.342;2023-08-31T03:31:10;100249.41;;;10.36;100.00
75460;BME280;64039;53.060;9.342;2023-08-31T03:33:35;100243.19;;;10.27;100.00
75460;BME280;64039;53.060;9.342;2023-08-31T03:36:02;100254.38;;;10.19;100.00
75460;BME280;64039;53.060;9.342;2023-08-31T03:38:30;100257.75;;;10.12;100.00
75460;BME280;64039;53.060;9.342;2023-08-31T03:40:56;100252.56;;;10.14;100.00
75460;BME280;64039;53.060;9.342;2023-08-31T03:43:22;100250.78;;;10.10;100.00
75460;BME280;64039;53.060;9.342;2023-08-31T03:45:48;100252.53;;;10.11;100.00
75460;BME280;64039;53.060;9.342;2023-08-31T03:48:14;100242.16;;;10.12;100.00
75460;BME280;64039;53.060;9.342;2023-08-31T03:50:40;100237.84;;;10.16;100.00
75460;BME280;64039;53.060;9.342;2023-08-31T03:53:05;100237.88;;;10.17;100.00
75460;BME280;64039;53.060;9.342;2023-08-31T03:55:31;100241.19;;;10.05;100.00
75460;BME280;64039;53.060;9.342;2023-08-31T03:57:56;100242.00;;;10.01;100.00
75460;BME280;64039;53.060;9.342;2023-08-31T04:00:21;100249.69;;;9.95;100.00
75460;BME280;64039;53.060;9.342;2023-08-31T04:02:47;100257.47;;;9.94;100.00
75460;BME280;64039;53.060;9.342;2023-08-31T04:05:12;100247.13;;;9.97;100.00
75460;BME280;64039;53.060;9.342;2023-08-31T04:07:40;100248.84;;;9.96;100.00
75460;BME280;64039;53.060;9.342;2023-08-31T04:10:06;100262.81;;;10.01;100.00
75460;BME280;64039;53.060;9.342;2023-08-31T04:12:32;100259.28;;;9.98;100.00
75460;BME280;64039;53.060;9.342;2023-08-31T04:14:57;100250.59;;;9.96;100.00
75460;BME280;64039;53.060;9.342;2023-08-31T04:17:23;100257.53;;;9.97;100.00
75460;BME280;64039;53.060;9.342;2023-08-31T04:19:50;100261.13;;;10.05;100.00
75460;BME280;64039;53.060;9.342;2023-08-31T04:22:15;100261.81;;;9.95;100.00
75460;BME280;64039;53.060;9.342;2023-08-31T04:24:42;100258.38;;;9.96;100.00
75460;BME280;64039;53.060;9.342;2023-08-31T04:27:07;100253.13;;;9.91;100.00
75460;BME280;64039;53.060;9.342;2023-08-31T04:29:33;100252.13;;;9.84;100.00
75460;BME280;64039;53.060;9.342;2023-08-31T04:31:58;100260.06;;;9.92;100.00
75460;BME280;64039;53.060;9.342;2023-08-31T04:34:24;100268.69;;;9.89;100.00
75460;BME280;64039;53.060;9.342;2023-08-31T04:36:49;100260.00;;;9.89;100.00
75460;BME280;64039;53.060;9.342;2023-08-31T04:39:15;100267.78;;;9.86;100.00
75460;BME280;64039;53.060;9.342;2023-08-31T04:41:41;100271.22;;;9.85;100.00
75460;BME280;64039;53.060;9.342;2023-08-31T04:44:06;100269.50;;;9.85;100.00
75460;BME280;64039;53.060;9.342;2023-08-31T04:46:32;100262.44;;;9.77;100.00
75460;BME280;64039;53.060;9.342;2023-08-31T04:48:59;100266.97;;;9.91;100.00
75460;BME280;64039;53.060;9.342;2023-08-31T04:51:31;100267.81;;;9.90;100.00
75460;BME280;64039;53.060;9.342;2023-08-31T04:53:58;100273.22;;;10.04;100.00
75460;BME280;64039;53.060;9.342;2023-08-31T04:56:23;100275.88;;;10.07;100.00
75460;BME280;64039;53.060;9.342;2023-08-31T04:58:49;100277.66;;;10.12;100.00
75460;BME280;64039;53.060;9.342;2023-08-31T05:01:14;100276.91;;;10.19;100.00
75460;BME280;64039;53.060;9.342;2023-08-31T05:03:41;100277.56;;;10.05;100.00
75460;BME280;64039;53.060;9.342;2023-08-31T05:06:07;100282.00;;;10.11;100.00
75460;BME280;64039;53.060;9.342;2023-08-31T05:08:33;100284.69;;;10.17;100.00
75460;BME280;64039;53.060;9.342;2023-08-31T05:10:59;100284.75;;;10.22;100.00
75460;BME280;64039;53.060;9.342;2023-08-31T05:13:24;100285.53;;;10.15;100.00
75460;BME280;64039;53.060;9.342;2023-08-31T05:15:50;100288.91;;;10.09;100.00
75460;BME280;64039;53.060;9.342;2023-08-31T05:18:16;100290.59;;;10.05;100.00
75460;BME280;64039;53.060;9.342;2023-08-31T05:20:45;100294.09;;;10.07;100.00
75460;BME280;64039;53.060;9.342;2023-08-31T05:23:11;100301.88;;;10.07;100.00
75460;BME280;64039;53.060;9.342;2023-08-31T05:25:41;100302.09;;;10.21;100.00
75460;BME280;64039;53.060;9.342;2023-08-31T05:28:07;100303.03;;;10.27;100.00
75460;BME280;64039;53.060;9.342;2023-08-31T05:30:32;100307.63;;;10.43;100.00
75460;BME280;64039;53.060;9.342;2023-08-31T05:33:00;100305.94;;;10.47;100.00
75460;BME280;64039;53.060;9.342;2023-08-31T05:35:25;100311.25;;;10.56;100.00
75460;BME280;64039;53.060;9.342;2023-08-31T05:37:51;100310.59;;;10.71;100.00
75460;BME280;64039;53.060;9.342;2023-08-31T05:40:16;100305.25;;;10.62;100.00
75460;BME280;64039;53.060;9.342;2023-08-31T05:42:43;100308.53;;;10.47;100.00
75460;BME280;64039;53.060;9.342;2023-08-31T05:45:09;100300.91;;;10.59;100.00
75460;BME280;64039;53.060;9.342;2023-08-31T05:47:35;100304.34;;;10.58;100.00
75460;BME280;64039;53.060;9.342;2023-08-31T05:50:01;100308.94;;;10.78;100.00
75460;BME280;64039;53.060;9.342;2023-08-31T05:52:27;100315.97;;;10.87;100.00
75460;BME280;64039;53.060;9.342;2023-08-31T05:54:52;100322.25;;;11.06;100.00
75460;BME280;64039;53.060;9.342;2023-08-31T05:57:19;100318.75;;;10.99;100.00
75460;BME280;64039;53.060;9.342;2023-08-31T05:59:46;100319.72;;;11.09;100.00
75460;BME280;64039;53.060;9.342;2023-08-31T06:02:11;100330.13;;;11.10;100.00
75460;BME280;64039;53.060;9.342;2023-08-31T06:04:36;100323.31;;;11.23;100.00
75460;BME280;64039;53.060;9.342;2023-08-31T06:07:02;100327.69;;;11.23;100.00
75460;BME280;64039;53.060;9.342;2023-08-31T06:09:28;100332.84;;;11.20;100.00
75460;BME280;64039;53.060;9.342;2023-08-31T06:11:53;100319.84;;;11.23;100.00
75460;BME280;64039;53.060;9.342;2023-08-31T06:14:19;100325.13;;;11.29;100.00
75460;BME280;64039;53.060;9.342;2023-08-31T06:16:45;100331.28;;;11.37;100.00
75460;BME280;64039;53.060;9.342;2023-08-31T06:19:10;100340.81;;;11.35;100.00
75460;BME280;64039;53.060;9.342;2023-08-31T06:21:36;100333.00;;;11.35;100.00
75460;BME280;64039;53.060;9.342;2023-08-31T06:24:02;100340.16;;;11.55;100.00
75460;BME280;64039;53.060;9.342;2023-08-31T06:26:29;100334.03;;;11.54;100.00
75460;BME280;64039;53.060;9.342;2023-08-31T06:28:54;100334.13;;;11.63;100.00
75460;BME280;64039;53.060;9.342;2023-08-31T06:31:20;100327.97;;;11.52;100.00
75460;BME280;64039;53.060;9.342;2023-08-31T06:33:45;100322.06;;;11.76;100.00
75460;BME280;64039;53.060;9.342;2023-08-31T06:36:10;100335.19;;;11.86;100.00
75460;BME280;64039;53.060;9.342;2023-08-31T06:38:36;100332.63;;;11.87;100.00
75460;BME280;64039;53.060;9.342;2023-08-31T06:41:02;100335.19;;;11.83;100.00
75460;BME280;64039;53.060;9.342;2023-08-31T06:43:28;100334.44;;;11.98;100.00
75460;BME280;64039;53.060;9.342;2023-08-31T06:45:53;100331.03;;;12.02;100.00
75460;BME280;64039;53.060;9.342;2023-08-31T06:48:19;100332.00;;;12.19;100.00
75460;BME280;64039;53.060;9.342;2023-08-31T06:50:44;100331.97;;;12.16;100.00
75460;BME280;64039;53.060;9.342;2023-08-31T06:53:10;100336.38;;;12.23;100.00
75460;BME280;64039;53.060;9.342;2023-08-31T06:55:35;100340.88;;;12.49;100.00
75460;BME280;64039;53.060;9.342;2023-08-31T06:58:02;100326.06;;;12.43;100.00
75460;BME280;64039;53.060;9.342;2023-08-31T07:00:29;100328.59;;;12.30;100.00
75460;BME280;64039;53.060;9.342;2023-08-31T07:02:55;100341.69;;;12.37;100.00
75460;BME280;64039;53.060;9.342;2023-08-31T07:05:25;100340.84;;;12.41;100.00
75460;BME280;64039;53.060;9.342;2023-08-31T07:07:54;100345.19;;;12.42;100.00
75460;BME280;64039;53.060;9.342;2023-08-31T07:10:23;100352.16;;;12.40;100.00
75460;BME280;64039;53.060;9.342;2023-08-31T07:12:49;100343.44;;;12.37;100.00
75460;BME280;64039;53.060;9.342;2023-08-31T07:15:15;100350.50;;;12.53;100.00
75460;BME280;64039;53.060;9.342;2023-08-31T07:17:40;100351.38;;;12.58;100.00
75460;BME280;64039;53.060;9.342;2023-08-31T07:20:06;100345.31;;;12.64;100.00
75460;BME280;64039;53.060;9.342;2023-08-31T07:22:34;100347.06;;;12.65;100.00
75460;BME280;64039;53.060;9.342;2023-08-31T07:24:59;100342.72;;;12.69;100.00
75460;BME280;64039;53.060;9.342;2023-08-31T07:27:25;100343.53;;;12.54;100.00
75460;BME280;64039;53.060;9.342;2023-08-31T07:29:53;100340.97;;;12.63;100.00
75460;BME280;64039;53.060;9.342;2023-08-31T07:32:19;100344.47;;;12.71;100.00
75460;BME280;64039;53.060;9.342;2023-08-31T07:34:44;100339.31;;;12.82;100.00
75460;BME280;64039;53.060;9.342;2023-08-31T07:37:10;100347.06;;;12.68;100.00
75460;BME280;64039;53.060;9.342;2023-08-31T07:39:35;100344.44;;;12.59;100.00
75460;BME280;64039;53.060;9.342;2023-08-31T07:42:01;100347.97;;;12.69;100.00
75460;BME280;64039;53.060;9.342;2023-08-31T07:44:27;100354.88;;;12.64;100.00
75460;BME280;64039;53.060;9.342;2023-08-31T07:46:53;100367.03;;;12.58;100.00
75460;BME280;64039;53.060;9.342;2023-08-31T07:49:18;100361.00;;;12.72;100.00
75460;BME280;64039;53.060;9.342;2023-08-31T07:51:44;100358.41;;;12.70;100.00
75460;BME280;64039;53.060;9.342;2023-08-31T07:54:09;100360.19;;;12.76;100.00
75460;BME280;64039;53.060;9.342;2023-08-31T07:56:35;100365.34;;;12.65;100.00
75460;BME280;64039;53.060;9.342;2023-08-31T07:59:00;100369.69;;;12.65;100.00
75460;BME280;64039;53.060;9.342;2023-08-31T08:01:26;100361.91;;;12.74;100.00
75460;BME280;64039;53.060;9.342;2023-08-31T08:03:51;100366.25;;;12.67;100.00
75460;BME280;64039;53.060;9.342;2023-08-31T08:06:17;100370.59;;;12.73;100.00
75460;BME280;64039;53.060;9.342;2023-08-31T08:08:42;100367.13;;;12.80;100.00
75460;BME280;64039;53.060;9.342;2023-08-31T08:11:08;100365.56;;;13.16;100.00
75460;BME280;64039;53.060;9.342;2023-08-31T08:13:33;100361.13;;;13.01;100.00
75460;BME280;64039;53.060;9.342;2023-08-31T08:15:58;100369.88;;;13.05;100.00
75460;BME280;64039;53.060;9.342;2023-08-31T08:18:24;100369.91;;;13.13;100.00
75460;BME280;64039;53.060;9.342;2023-08-31T08:20:53;100381.22;;;13.16;100.00
75460;BME280;64039;53.060;9.342;2023-08-31T08:23:19;100380.25;;;12.89;100.00
75460;BME280;64039;53.060;9.342;2023-08-31T08:25:44;100374.09;;;12.77;100.00
75460;BME280;64039;53.060;9.342;2023-08-31T08:28:10;100375.75;;;12.61;100.00
75460;BME280;64039;53.060;9.342;2023-08-31T08:30:35;100375.88;;;12.81;100.00
75460;BME280;64039;53.060;9.342;2023-08-31T08:33:01;100377.59;;;12.76;100.00
75460;BME280;64039;53.060;9.342;2023-08-31T08:35:26;100374.91;;;12.65;100.00
75460;BME280;64039;53.060;9.342;2023-08-31T08:37:52;100378.41;;;12.67;100.00
75460;BME280;64039;53.060;9.342;2023-08-31T08:40:18;100376.69;;;12.75;100.00
75460;BME280;64039;53.060;9.342;2023-08-31T08:42:46;100385.44;;;12.82;100.00
75460;BME280;64039;53.060;9.342;2023-08-31T08:45:14;100380.19;;;12.80;100.00
75460;BME280;64039;53.060;9.342;2023-08-31T08:47:43;100375.88;;;12.82;100.00
75460;BME280;64039;53.060;9.342;2023-08-31T08:50:10;100373.31;;;12.96;100.00
75460;BME280;64039;53.060;9.342;2023-08-31T08:52:37;100376.03;;;13.13;100.00
75460;BME280;64039;53.060;9.342;2023-08-31T08:55:03;100382.13;;;13.21;100.00
75460;BME280;64039;53.060;9.342;2023-08-31T08:57:30;100377.75;;;13.13;100.00
75460;BME280;64039;53.060;9.342;2023-08-31T08:59:57;100379.63;;;13.46;100.00
75460;BME280;64039;53.060;9.342;2023-08-31T09:02:23;100379.66;;;13.68;100.00
75460;BME280;64039;53.060;9.342;2023-08-31T09:04:49;100385.78;;;13.75;100.00
75460;BME280;64039;53.060;9.342;2023-08-31T09:07:18;100390.16;;;14.07;100.00
75460;BME280;64039;53.060;9.342;2023-08-31T09:09:53;100387.50;;;14.22;100.00
75460;BME280;64039;53.060;9.342;2023-08-31T09:12:22;100389.22;;;14.48;100.00
75460;BME280;64039;53.060;9.342;2023-08-31T09:15:01;100390.13;;;13.99;100.00
75460;BME280;64039;53.060;9.342;2023-08-31T09:17:38;100387.38;;;13.26;100.00
75460;BME280;64039;53.060;9.342;2023-08-31T09:20:04;100392.63;;;13.37;100.00
75460;BME280;64039;53.060;9.342;2023-08-31T09:22:29;100395.19;;;13.25;100.00
75460;BME280;64039;53.060;9.342;2023-08-31T09:24:55;100398.66;;;13.19;100.00
75460;BME280;64039;53.060;9.342;2023-08-31T09:27:20;100408.38;;;13.46;100.00
75460;BME280;64039;53.060;9.342;2023-08-31T09:29:48;100398.72;;;13.31;100.00
75460;BME280;64039;53.060;9.342;2023-08-31T09:32:17;100409.13;;;13.16;100.00
75460;BME280;64039;53.060;9.342;2023-08-31T09:34:43;100404.72;;;13.07;100.00
75460;BME280;64039;53.060;9.342;2023-08-31T09:37:08;100414.41;;;13.34;100.00
75460;BME280;64039;53.060;9.342;2023-08-31T09:39:39;100413.50;;;13.28;100.00
75460;BME280;64039;53.060;9.342;2023-08-31T09:42:05;100418.81;;;13.39;100.00
75460;BME280;64039;53.060;9.342;2023-08-31T09:44:30;100405.72;;;13.37;100.00
75460;BME280;64039;53.060;9.342;2023-08-31T09:46:57;100397.03;;;13.52;100.00
75460;BME280;64039;53.060;9.342;2023-08-31T09:49:24;100402.34;;;13.72;100.00
75460;BME280;64039;53.060;9.342;2023-08-31T09:51:51;100395.31;;;13.52;100.00
75460;BME280;64039;53.060;9.342;2023-08-31T09:54:19;100403.22;;;14.14;100.00
75460;BME280;64039;53.060;9.342;2023-08-31T09:56:47;100399.75;;;13.98;100.00
75460;BME280;64039;53.060;9.342;2023-08-31T09:59:14;100396.25;;;14.07;100.00
75460;BME280;64039;53.060;9.342;2023-08-31T10:01:40;100404.09;;;14.35;100.00
75460;BME280;64039;53.060;9.342;2023-08-31T10:04:07;100395.38;;;13.96;100.00
75460;BME280;64039;53.060;9.342;2023-08-31T10:06:38;100401.44;;;14.46;100.00
75460;BME280;64039;53.060;9.342;2023-08-31T10:09:05;100402.34;;;14.33;100.00
75460;BME280;64039;53.060;9.342;2023-08-31T10:11:31;100399.75;;;14.26;100.00
75460;BME280;64039;53.060;9.342;2023-08-31T10:13:58;100397.09;;;14.29;100.00
75460;BME280;64039;53.060;9.342;2023-08-31T10:16:25;100397.09;;;14.15;100.00
75460;BME280;64039;53.060;9.342;2023-08-31T10:18:51;100391.88;;;14.28;100.00
75460;BME280;64039;53.060;9.342;2023-08-31T10:21:17;100388.38;;;14.30;100.00
75460;BME280;64039;53.060;9.342;2023-08-31T10:23:50;100393.53;;;14.86;100.00
75460;BME280;64039;53.060;9.342;2023-08-31T10:26:31;100396.09;;;15.00;100.00
75460;BME280;64039;53.060;9.342;2023-08-31T10:28:58;100390.81;;;15.09;100.00
75460;BME280;64039;53.060;9.342;2023-08-31T10:31:28;100399.44;;;15.33;100.00
75460;BME280;64039;53.060;9.342;2023-08-31T10:36:21;100391.59;;;15.29;100.00
75460;BME280;64039;53.060;9.342;2023-08-31T10:41:21;100400.44;;;15.14;100.00
75460;BME280;64039;53.060;9.342;2023-08-31T10:43:55;100402.91;;;15.40;100.00
75460;BME280;64039;53.060;9.342;2023-08-31T10:51:36;100395.06;;;15.37;100.00
75460;BME280;64039;53.060;9.342;2023-08-31T10:54:22;100403.19;;;14.75;100.00
75460;BME280;64039;53.060;9.342;2023-08-31T10:59:45;100411.91;;;14.55;100.00
75460;BME280;64039;53.060;9.342;2023-08-31T11:02:27;100411.00;;;14.89;100.00
75460;BME280;64039;53.060;9.342;2023-08-31T11:05:16;100414.44;;;15.06;100.00
75460;BME280;64039;53.060;9.342;2023-08-31T11:07:42;100408.22;;;15.26;100.00
75460;BME280;64039;53.060;9.342;2023-08-31T11:12:43;100395.78;;;15.65;100.00
75460;BME280;64039;53.060;9.342;2023-08-31T11:15:12;100395.72;;;15.76;100.00
75460;BME280;64039;53.060;9.342;2023-08-31T11:17:39;100416.78;;;15.65;100.00
75460;BME280;64039;53.060;9.342;2023-08-31T11:20:06;100406.44;;;15.36;100.00
75460;BME280;64039;53.060;9.342;2023-08-31T11:22:34;100405.50;;;15.45;100.00
75460;BME280;64039;53.060;9.342;2023-08-31T11:25:03;100402.66;;;15.80;100.00
75460;BME280;64039;53.060;9.342;2023-08-31T11:27:29;100408.72;;;15.93;100.00
75460;BME280;64039;53.060;9.342;2023-08-31T11:29:54;100410.28;;;16.17;100.00
75460;BME280;64039;53.060;9.342;2023-08-31T11:32:23;100396.00;;;16.49;99.94
75460;BME280;64039;53.060;9.342;2023-08-31T11:34:49;100401.66;;;16.93;98.63
75460;BME280;64039;53.060;9.342;2023-08-31T11:37:15;100406.94;;;16.89;93.54
75460;BME280;64039;53.060;9.342;2023-08-31T11:39:42;100409.56;;;16.93;89.88
75460;BME280;64039;53.060;9.342;2023-08-31T11:42:08;100404.63;;;16.62;87.85
75460;BME280;64039;53.060;9.342;2023-08-31T11:44:34;100402.69;;;16.77;88.75
75460;BME280;64039;53.060;9.342;2023-08-31T11:47:00;100406.88;;;16.98;91.87
75460;BME280;64039;53.060;9.342;2023-08-31T11:49:26;100407.88;;;16.83;86.94
75460;BME280;64039;53.060;9.342;2023-08-31T11:51:53;100412.56;;;16.56;88.96
75460;BME280;64039;53.060;9.342;2023-08-31T11:54:18;100416.19;;;16.43;87.92
75460;BME280;64039;53.060;9.342;2023-08-31T11:56:45;100407.41;;;16.44;88.26
75460;BME280;64039;53.060;9.342;2023-08-31T11:59:18;100404.56;;;16.67;89.50
75460;BME280;64039;53.060;9.342;2023-08-31T12:01:48;100412.66;;;16.47;89.48
75460;BME280;64039;53.060;9.342;2023-08-31T12:04:15;100414.16;;;16.71;90.28
75460;BME280;64039;53.060;9.342;2023-08-31T12:06:41;100416.84;;;16.65;85.92
75460;BME280;64039;53.060;9.342;2023-08-31T12:09:08;100434.25;;;16.77;90.91
75460;BME280;64039;53.060;9.342;2023-08-31T12:11:34;100437.16;;;16.49;88.97
75460;BME280;64039;53.060;9.342;2023-08-31T12:14:01;100440.69;;;16.45;90.36
75460;BME280;64039;53.060;9.342;2023-08-31T12:16:33;100448.66;;;16.35;91.75
75460;BME280;64039;53.060;9.342;2023-08-31T12:19:02;100451.53;;;16.05;90.94
75460;BME280;64039;53.060;9.342;2023-08-31T12:21:28;100454.13;;;16.09;88.73
75460;BME280;64039;53.060;9.342;2023-08-31T12:23:53;100452.47;;;15.97;90.58
75460;BME280;64039;53.060;9.342;2023-08-31T12:26:19;100458.59;;;15.95;92.41
75460;BME280;64039;53.060;9.342;2023-08-31T12:28:45;100467.41;;;15.77;92.83
75460;BME280;64039;53.060;9.342;2023-08-31T12:31:10;100470.94;;;15.77;95.64
75460;BME280;64039;53.060;9.342;2023-08-31T12:33:35;100471.88;;;15.62;97.29
75460;BME280;64039;53.060;9.342;2023-08-31T12:36:01;100481.53;;;15.57;99.51
75460;BME280;64039;53.060;9.342;2023-08-31T12:38:27;100481.56;;;15.46;99.32
75460;BME280;64039;53.060;9.342;2023-08-31T12:40:53;100486.00;;;15.35;100.00
75460;BME280;64039;53.060;9.342;2023-08-31T12:43:18;100492.16;;;15.15;100.00
75460;BME280;64039;53.060;9.342;2023-08-31T12:45:43;100493.97;;;14.96;100.00
75460;BME280;64039;53.060;9.342;2023-08-31T12:48:09;100495.75;;;14.74;100.00
75460;BME280;64039;53.060;9.342;2023-08-31T12:50:35;100506.22;;;14.54;100.00
75460;BME280;64039;53.060;9.342;2023-08-31T12:53:00;100520.13;;;14.25;100.00
75460;BME280;64039;53.060;9.342;2023-08-31T12:55:26;100528.81;;;13.94;100.00
75460;BME280;64039;53.060;9.342;2023-08-31T12:57:51;100540.06;;;13.72;100.00